Time;durP1;ratioP1;P1;durP2;ratioP2;P2;SDS_P1;SDS_P2;PMS_P1;PMS_P2;Temp;Humidity;BMP_temperature;BMP_pressure;BME280_temperature;BME280_humidity;BME280_pressure;Samples;Min_cycle;Max_cycle;Signal;HPM_P1;HPM_P2
2021/05/01 00:01:19;;;;;;;6.07;2.70;;;;;;;25.45;37.92;94775.94;5039163;28;20033;-81
2021/05/01 00:03:45;;;;;;;4.95;3.05;;;;;;;25.44;38.11;94775.22;5039729;28;20033;-80
2021/05/01 00:06:10;;;;;;;4.55;2.60;;;;;;;25.42;37.73;94766.06;5053867;28;20423;-80
2021/05/01 00:08:36;;;;;;;5.53;2.85;;;;;;;25.42;37.82;94763.31;5038875;28;20420;-80
2021/05/01 00:11:02;;;;;;;5.65;3.50;;;;;;;25.41;38.45;94770.03;5039241;28;20123;-80
2021/05/01 00:13:29;;;;;;;5.38;2.75;;;;;;;25.40;38.33;94763.13;5038245;28;20057;-80
2021/05/01 00:15:54;;;;;;;4.97;3.13;;;;;;;25.24;37.64;94763.47;5038190;28;20497;-80
2021/05/01 00:18:20;;;;;;;4.93;2.90;;;;;;;25.35;38.59;94772.16;5036842;28;20022;-80
2021/05/01 00:20:45;;;;;;;4.53;2.80;;;;;;;25.36;38.44;94773.63;5038522;28;20029;-81
2021/05/01 00:23:11;;;;;;;6.65;2.85;;;;;;;25.35;38.45;94774.91;5037555;28;20026;-81
2021/05/01 00:25:36;;;;;;;6.18;2.92;;;;;;;25.25;38.01;94773.88;5038514;28;20524;-80
2021/05/01 00:28:03;;;;;;;6.18;2.90;;;;;;;25.36;38.53;94779.09;5039463;28;20033;-80
2021/05/01 00:30:28;;;;;;;4.25;2.90;;;;;;;24.85;38.34;94715.00;5038304;28;20029;-80
2021/05/01 00:32:54;;;;;;;7.00;3.30;;;;;;;25.32;37.96;94784.19;5037494;28;20809;-81
2021/05/01 00:35:19;;;;;;;4.10;2.60;;;;;;;25.28;38.79;94786.47;5036504;28;20139;-80
2021/05/01 00:37:45;;;;;;;5.03;2.83;;;;;;;24.91;38.41;94726.56;5038573;28;20032;-80
2021/05/01 00:40:11;;;;;;;5.30;2.95;;;;;;;25.30;38.12;94770.28;5028194;28;20041;-81
2021/05/01 00:42:36;;;;;;;4.75;2.72;;;;;;;25.28;38.75;94780.28;5038247;28;20025;-80
2021/05/01 00:45:03;;;;;;;4.70;3.20;;;;;;;25.29;38.09;94787.22;5036969;28;20035;-80
2021/05/01 00:47:28;;;;;;;4.80;2.95;;;;;;;25.01;38.58;94733.09;5038536;28;20060;-80
2021/05/01 00:49:54;;;;;;;6.07;2.90;;;;;;;25.27;38.07;94776.81;5037651;28;20013;-80
2021/05/01 00:52:19;;;;;;;4.72;3.15;;;;;;;25.25;38.34;94784.06;5037403;28;20014;-81
2021/05/01 00:54:45;;;;;;;6.47;3.42;;;;;;;24.99;38.44;94756.75;5053277;28;20037;-80
2021/05/01 00:57:10;;;;;;;6.15;3.05;;;;;;;25.24;38.79;94788.78;5028332;28;20120;-80
2021/05/01 00:59:36;;;;;;;6.35;2.78;;;;;;;25.23;38.72;94776.41;5035517;28;20056;-80
2021/05/01 01:02:01;;;;;;;4.70;3.05;;;;;;;24.98;38.58;94750.53;5038077;28;20068;-80
2021/05/01 01:04:27;;;;;;;4.28;2.75;;;;;;;25.19;38.65;94775.97;5036768;28;20030;-80
2021/05/01 01:06:52;;;;;;;6.25;3.28;;;;;;;25.20;38.29;94772.00;5036399;28;20025;-80
2021/05/01 01:09:18;;;;;;;4.35;3.05;;;;;;;25.19;38.19;94775.97;5037072;28;20048;-80
2021/05/01 01:11:44;;;;;;;4.47;2.92;;;;;;;25.15;38.67;94770.09;5037863;28;20095;-80
2021/05/01 01:14:11;;;;;;;4.38;3.10;;;;;;;25.13;39.03;94745.28;5037266;28;20016;-81
2021/05/01 01:16:36;;;;;;;7.93;3.28;;;;;;;25.13;38.42;94760.97;5038755;28;20408;-79
2021/05/01 01:19:02;;;;;;;5.68;2.97;;;;;;;25.09;39.03;94772.19;5037156;28;20025;-80
2021/05/01 01:21:27;;;;;;;4.65;2.72;;;;;;;25.00;38.58;94742.56;5038049;28;20116;-80
2021/05/01 01:23:54;;;;;;;5.60;2.80;;;;;;;25.11;38.38;94753.28;5037247;28;20055;-81
2021/05/01 01:26:19;;;;;;;4.78;3.08;;;;;;;25.17;38.48;94762.13;5038112;28;20060;-80
2021/05/01 01:28:45;;;;;;;5.57;2.40;;;;;;;25.14;39.01;94757.69;5037830;28;20025;-80
2021/05/01 01:31:10;;;;;;;5.22;2.83;;;;;;;25.09;38.98;94753.06;5041122;28;20033;-78
2021/05/01 01:33:36;;;;;;;4.57;2.80;;;;;;;25.10;39.13;94751.81;5041646;28;20029;-80
2021/05/01 01:36:06;;;;;;;4.65;2.90;;;;;;;25.13;38.64;94756.22;5057101;28;20107;-81
2021/05/01 01:38:31;;;;;;;4.63;2.85;;;;;;;25.14;39.03;94754.97;5041149;28;20160;-80
2021/05/01 01:40:57;;;;;;;4.03;2.80;;;;;;;24.92;38.87;94725.31;5042776;28;20424;-81
2021/05/01 01:43:25;;;;;;;5.18;2.70;;;;;;;25.13;38.88;94745.28;5041137;28;20029;-80
2021/05/01 01:45:50;;;;;;;3.90;2.88;;;;;;;25.12;38.75;94743.81;5041742;28;20032;-80
2021/05/01 01:48:16;;;;;;;4.70;2.60;;;;;;;25.10;39.11;94734.69;5042832;28;20493;-80
2021/05/01 01:50:41;;;;;;;4.78;2.63;;;;;;;25.11;38.68;94742.34;5042597;28;20112;-80
2021/05/01 01:53:07;;;;;;;4.88;2.70;;;;;;;24.83;39.43;94712.06;5040709;28;20037;-81
2021/05/01 01:55:34;;;;;;;9.32;3.22;;;;;;;25.19;38.57;94745.91;5053919;28;20033;-80
2021/05/01 01:58:00;;;;;;;4.82;2.80;;;;;;;25.25;38.42;94746.53;5067342;28;20038;-79
2021/05/01 02:00:27;;;;;;;5.03;2.50;;;;;;;25.23;39.30;94749.06;5083639;28;20426;-77
2021/05/01 02:02:52;;;;;;;6.30;3.15;;;;;;;25.20;39.15;94760.31;5066682;28;20048;-81
2021/05/01 02:05:18;;;;;;;3.78;2.25;;;;;;;25.18;38.85;94752.63;5067673;28;20017;-80
2021/05/01 02:07:43;;;;;;;3.60;2.35;;;;;;;25.19;39.58;94754.13;5047266;28;20031;-83
2021/05/01 02:10:09;;;;;;;5.28;2.67;;;;;;;25.22;39.16;94757.81;5048256;28;20036;-83
2021/05/01 02:12:37;;;;;;;3.50;2.42;;;;;;;25.20;38.80;94761.06;5046819;28;20496;-79
2021/05/01 02:15:16;;;;;;;5.25;2.72;;;;;;;25.19;39.25;94773.25;5029991;28;20497;-80
2021/05/01 02:17:43;;;;;;;3.55;2.40;;;;;;;25.18;39.32;94779.97;5046130;28;20025;-80
2021/05/01 02:20:10;;;;;;;4.43;2.70;;;;;;;25.19;38.82;94781.44;5037390;28;20482;-81
2021/05/01 02:22:36;;;;;;;4.15;2.40;;;;;;;24.94;39.29;94746.63;5041650;28;20041;-80
2021/05/01 02:25:01;;;;;;;3.85;2.50;;;;;;;24.97;39.64;94749.03;5038854;28;20082;-80
2021/05/01 02:27:27;;;;;;;4.60;2.35;;;;;;;25.20;39.46;94772.00;5041245;28;20023;-79
2021/05/01 02:29:52;;;;;;;4.88;2.65;;;;;;;25.14;39.01;94768.63;5039773;28;20025;-82
2021/05/01 02:32:18;;;;;;;4.47;2.90;;;;;;;25.20;39.23;94772.00;5040902;28;20132;-82
2021/05/01 02:34:44;;;;;;;3.95;2.58;;;;;;;25.15;39.57;94759.16;5041523;28;20125;-83
2021/05/01 02:37:09;;;;;;;4.60;2.80;;;;;;;25.20;39.62;94761.06;5040658;28;20086;-83
2021/05/01 02:39:35;;;;;;;3.85;2.40;;;;;;;25.18;39.84;94760.84;5041245;28;20032;-83
2021/05/01 02:42:00;;;;;;;3.88;2.60;;;;;;;25.14;39.11;94760.44;5041161;28;20033;-83
2021/05/01 02:44:26;;;;;;;3.97;2.53;;;;;;;24.90;39.06;94729.81;5040842;28;20491;-83
2021/05/01 02:46:51;;;;;;;4.22;2.28;;;;;;;25.17;39.78;94761.34;5039973;28;20033;-84
2021/05/01 02:49:17;;;;;;;4.90;2.70;;;;;;;25.15;39.32;94763.88;5040899;28;20021;-81
2021/05/01 02:51:42;;;;;;;4.07;2.65;;;;;;;25.14;40.05;94763.16;5039681;28;20029;-78
2021/05/01 02:54:08;;;;;;;5.07;2.67;;;;;;;24.83;39.31;94731.19;5040155;28;20036;-78
2021/05/01 02:56:33;;;;;;;4.47;2.65;;;;;;;24.86;39.73;94726.69;5039773;28;20033;-78
2021/05/01 02:58:59;;;;;;;4.90;2.88;;;;;;;25.12;40.07;94762.94;5038417;28;20032;-78
2021/05/01 03:01:24;;;;;;;4.80;2.55;;;;;;;25.12;39.45;94762.94;5037741;28;20025;-77
2021/05/01 03:03:49;;;;;;;5.00;2.72;;;;;;;25.08;39.79;94765.28;5037707;28;20025;-78
2021/05/01 03:06:15;;;;;;;5.55;2.72;;;;;;;25.14;39.41;94765.91;5037847;28;20021;-78
2021/05/01 03:08:40;;;;;;;6.15;2.97;;;;;;;25.13;39.84;94772.63;5039905;28;20021;-78
2021/05/01 03:11:06;;;;;;;5.03;2.28;;;;;;;25.15;40.09;94775.56;5039318;28;20048;-80
2021/05/01 03:13:31;;;;;;;5.50;2.90;;;;;;;25.14;39.88;94776.81;5038752;28;20032;-80
2021/05/01 03:15:57;;;;;;;4.32;2.55;;;;;;;24.85;39.80;94736.84;5039555;28;20420;-80
2021/05/01 03:18:22;;;;;;;4.13;2.67;;;;;;;25.13;39.39;94771.88;5038174;28;20029;-81
2021/05/01 03:20:49;;;;;;;4.45;2.60;;;;;;;25.12;39.85;94771.13;5038946;28;20049;-81
2021/05/01 03:23:15;;;;;;;3.42;2.45;;;;;;;25.07;39.48;94766.53;5039616;28;20051;-79
2021/05/01 03:25:40;;;;;;;4.55;2.58;;;;;;;25.12;40.14;94776.59;5037979;28;20025;-80
2021/05/01 03:28:06;;;;;;;4.43;2.45;;;;;;;25.10;39.58;94790.06;5037969;28;20033;-80
2021/05/01 03:30:31;;;;;;;3.17;2.50;;;;;;;25.13;40.16;94794.47;5036808;28;20117;-79
2021/05/01 03:32:57;;;;;;;4.22;2.60;;;;;;;25.09;39.89;94788.59;5037896;28;20036;-80
2021/05/01 03:35:22;;;;;;;4.75;2.50;;;;;;;25.10;39.79;94790.06;5037431;28;20099;-80
2021/05/01 03:37:48;;;;;;;4.28;2.65;;;;;;;25.11;39.73;94797.00;5038024;28;20033;-80
2021/05/01 03:40:14;;;;;;;4.55;2.70;;;;;;;24.86;40.25;94749.25;5036858;28;20021;-80
2021/05/01 03:42:39;;;;;;;5.82;2.58;;;;;;;25.06;39.53;94784.16;5037242;28;20036;-81
2021/05/01 03:45:06;;;;;;;5.20;2.70;;;;;;;25.08;39.67;94795.34;5037493;28;20416;-81
2021/05/01 03:47:31;;;;;;;3.63;2.50;;;;;;;25.10;39.74;94790.06;5035269;28;20040;-82
2021/05/01 03:49:57;;;;;;;4.45;2.58;;;;;;;25.08;39.78;94792.59;5037505;28;20020;-81
2021/05/01 03:52:22;;;;;;;4.72;2.55;;;;;;;25.10;40.06;94790.06;5036764;28;20398;-81
2021/05/01 03:54:48;;;;;;;4.30;2.63;;;;;;;25.09;39.79;94782.41;5039218;28;20026;-80
2021/05/01 03:57:13;;;;;;;5.55;3.05;;;;;;;25.03;40.08;94790.69;5038147;28;20021;-80
2021/05/01 03:59:39;;;;;;;5.35;2.95;;;;;;;25.07;40.15;94785.66;5038426;28;20021;-80
2021/05/01 04:02:05;;;;;;;4.20;2.40;;;;;;;25.08;40.44;94787.13;5038647;28;20040;-80
2021/05/01 04:04:31;;;;;;;4.28;2.50;;;;;;;25.08;40.59;94787.13;5038592;28;20053;-80
2021/05/01 04:06:56;;;;;;;4.78;2.67;;;;;;;25.06;40.29;94797.84;5037951;28;20031;-80
2021/05/01 04:09:21;;;;;;;3.80;2.30;;;;;;;24.95;40.23;94781.63;5038128;28;20114;-80
2021/05/01 04:11:47;;;;;;;5.32;2.78;;;;;;;25.06;39.77;94800.56;5037862;28;20459;-81
2021/05/01 04:14:12;;;;;;;3.38;2.30;;;;;;;25.06;39.73;94800.56;5037996;28;20029;-80
2021/05/01 04:16:38;;;;;;;4.32;2.65;;;;;;;25.08;40.14;94795.34;5036940;28;20079;-81
2021/05/01 04:19:03;;;;;;;4.32;2.30;;;;;;;25.09;39.86;94804.97;5037496;28;20017;-81
2021/05/01 04:21:29;;;;;;;4.60;2.70;;;;;;;25.08;40.55;94798.06;5037379;28;20029;-82
2021/05/01 04:23:54;;;;;;;4.53;2.58;;;;;;;25.09;40.55;94796.78;5037901;28;20500;-82
2021/05/01 04:26:21;;;;;;;4.00;2.25;;;;;;;25.10;39.79;94801.00;5037074;28;20488;-82
2021/05/01 04:28:47;;;;;;;5.10;2.63;;;;;;;25.11;40.51;94802.47;5036561;28;20020;-82
2021/05/01 04:31:12;;;;;;;5.00;2.75;;;;;;;25.10;40.55;94794.81;5036883;28;20049;-79
2021/05/01 04:33:38;;;;;;;3.50;2.42;;;;;;;25.14;40.48;94795.97;5035057;28;20031;-78
2021/05/01 04:36:04;;;;;;;4.82;2.67;;;;;;;25.14;40.45;94795.97;5037502;28;20036;-79
2021/05/01 04:38:29;;;;;;;4.07;2.70;;;;;;;24.97;40.28;94770.91;5036624;28;20036;-78
2021/05/01 04:40:56;;;;;;;3.85;2.33;;;;;;;25.18;40.46;94785.44;5035850;28;20060;-81
2021/05/01 04:43:24;;;;;;;5.28;2.60;;;;;;;24.86;40.03;94749.25;5051082;28;20041;-83
2021/05/01 04:45:50;;;;;;;3.75;2.38;;;;;;;25.20;39.84;94804.78;5021153;28;20562;-80
2021/05/01 04:48:16;;;;;;;5.00;2.47;;;;;;;25.26;39.70;94808.16;5036605;28;20035;-82
2021/05/01 04:50:41;;;;;;;4.22;2.53;;;;;;;25.27;39.81;94804.13;5038483;28;20017;-82
2021/05/01 04:53:07;;;;;;;6.18;2.65;;;;;;;25.13;40.55;94778.09;5035997;28;20025;-78
2021/05/01 04:55:32;;;;;;;4.05;2.55;;;;;;;25.36;40.23;94795.50;5037296;28;20029;-82
2021/05/01 04:57:58;;;;;;;4.93;2.53;;;;;;;25.37;40.08;94811.38;5052880;28;20048;-77
2021/05/01 05:00:24;;;;;;;4.82;2.92;;;;;;;25.13;40.08;94772.63;5034727;28;20660;-78
2021/05/01 05:02:49;;;;;;;5.00;2.47;;;;;;;25.10;40.36;94762.75;5036900;28;20064;-79
2021/05/01 05:05:15;;;;;;;4.20;2.60;;;;;;;25.08;40.49;94770.75;5036031;28;20493;-78
2021/05/01 05:07:41;;;;;;;3.72;2.35;;;;;;;25.31;40.67;94799.09;5019374;28;20078;-80
2021/05/01 05:10:10;;;;;;;4.07;2.70;;;;;;;25.40;40.33;94801.41;5034492;28;20086;-77
2021/05/01 05:12:36;;;;;;;3.50;2.40;;;;;;;25.24;40.32;94774.41;5036801;28;20032;-78
2021/05/01 05:15:02;;;;;;;4.13;2.45;;;;;;;25.61;39.69;94815.88;5034864;28;20126;-78
2021/05/01 05:17:27;;;;;;;5.97;2.85;;;;;;;25.63;39.97;94807.88;5035474;28;20048;-76
2021/05/01 05:19:53;;;;;;;4.07;2.40;;;;;;;25.79;39.39;94816.50;5034056;28;20033;-76
2021/05/01 05:22:18;;;;;;;6.00;2.50;;;;;;;25.87;39.43;94800.94;5036047;28;20040;-79
2021/05/01 05:24:44;;;;;;;4.00;2.58;;;;;;;26.04;39.12;94809.50;5019067;28;20056;-75
2021/05/01 05:27:09;;;;;;;5.43;2.47;;;;;;;26.15;39.48;94801.03;5036176;28;20033;-81
2021/05/01 05:29:35;;;;;;;4.90;2.67;;;;;;;26.28;38.68;94817.44;5036928;28;20029;-81
2021/05/01 05:32:01;;;;;;;4.72;2.28;;;;;;;26.41;39.26;94812.63;5037767;28;20025;-80
2021/05/01 05:34:26;;;;;;;5.22;2.70;;;;;;;26.55;38.56;94807.84;5036620;28;20049;-82
2021/05/01 05:36:52;;;;;;;3.53;2.45;;;;;;;26.36;38.24;94774.44;5036313;28;20032;-76
2021/05/01 05:39:17;;;;;;;4.15;2.47;;;;;;;26.75;38.21;94809.81;5034506;28;20035;-77
2021/05/01 05:41:43;;;;;;;12.10;3.42;;;;;;;26.78;38.62;94821.16;5052156;28;20505;-78
2021/05/01 05:44:08;;;;;;;6.68;3.10;;;;;;;26.73;38.84;94815.09;5033010;28;20032;-77
2021/05/01 05:46:34;;;;;;;10.82;4.15;;;;;;;26.64;38.85;94821.06;5034860;28;20326;-81
2021/05/01 05:48:59;;;;;;;9.30;3.72;;;;;;;26.51;39.12;94801.94;5035336;28;20021;-78
2021/05/01 05:51:25;;;;;;;8.95;3.92;;;;;;;26.30;39.69;94820.38;5036112;28;20029;-80
2021/05/01 05:53:50;;;;;;;11.77;4.25;;;;;;;26.49;39.48;94837.34;5034131;28;20439;-81
2021/05/01 05:56:16;;;;;;;13.70;3.95;;;;;;;26.53;39.67;94827.53;5035151;28;20033;-79
2021/05/01 05:58:42;;;;;;;11.68;4.32;;;;;;;26.24;39.86;94830.69;5036574;28;20132;-78
2021/05/01 06:01:07;;;;;;;10.75;4.53;;;;;;;26.38;39.83;94810.22;5036817;28;20085;-81
2021/05/01 06:03:33;;;;;;;9.63;4.15;;;;;;;25.93;39.68;94765.97;5036232;28;20049;-78
2021/05/01 06:06:06;;;;;;;8.57;3.83;;;;;;;25.95;40.21;94790.78;5023631;28;20056;-80
2021/05/01 06:08:32;;;;;;;12.20;4.10;;;;;;;26.33;39.84;94836.47;5033491;28;20474;-76
2021/05/01 06:10:58;;;;;;;12.38;4.20;;;;;;;26.40;39.60;94826.88;5034910;28;20496;-77
2021/05/01 06:13:24;;;;;;;8.27;3.80;;;;;;;26.41;39.20;94836.53;5034473;28;20035;-77
2021/05/01 06:15:50;;;;;;;10.45;4.18;;;;;;;26.41;38.72;94831.06;5036930;28;20159;-77
2021/05/01 06:18:15;;;;;;;7.20;3.53;;;;;;;26.38;39.20;94827.41;5037212;28;20041;-76
2021/05/01 06:20:41;;;;;;;8.40;3.75;;;;;;;26.39;38.69;94822.66;5020452;28;20090;-77
2021/05/01 06:23:06;;;;;;;9.52;4.00;;;;;;;26.14;38.93;94791.34;5038064;28;20029;-76
2021/05/01 06:25:32;;;;;;;13.35;4.03;;;;;;;26.14;39.35;94785.13;5039257;28;20031;-78
2021/05/01 06:27:58;;;;;;;10.35;3.70;;;;;;;26.03;38.83;94774.44;5036947;28;20048;-81
2021/05/01 06:30:23;;;;;;;7.82;3.50;;;;;;;25.82;39.04;94765.47;5028414;28;20020;-78
2021/05/01 06:32:50;;;;;;;9.25;3.63;;;;;;;26.22;38.51;94807.84;5038059;28;20547;-77
2021/05/01 06:35:16;;;;;;;13.48;3.88;;;;;;;25.95;38.50;94757.22;5039917;28;20057;-79
2021/05/01 06:37:41;;;;;;;7.75;3.30;;;;;;;26.28;38.24;94807.22;5028255;28;20039;-79
2021/05/01 06:40:16;;;;;;;8.27;3.38;;;;;;;26.17;38.37;94789.53;5038588;28;20511;-78
2021/05/01 06:42:49;;;;;;;11.18;4.00;;;;;;;26.07;38.73;94759.16;5037833;28;20029;-79
2021/05/01 06:45:16;;;;;;;8.75;3.72;;;;;;;26.38;38.79;94782.84;5038232;28;20463;-80
2021/05/01 06:48:01;;;;;;;7.55;3.47;;;;;;;26.35;38.15;94794.84;5038937;28;20099;-78
2021/05/01 06:50:27;;;;;;;10.27;4.28;;;;;;;26.27;38.42;94782.34;5039713;28;20026;-78
2021/05/01 06:52:52;;;;;;;11.48;3.92;;;;;;;26.45;38.83;94804.09;5037446;28;20041;-79
2021/05/01 06:55:19;;;;;;;11.85;3.80;;;;;;;26.49;38.42;94820.94;5038560;28;20029;-79
2021/05/01 06:57:46;;;;;;;11.88;3.95;;;;;;;26.34;38.57;94804.34;5037162;28;20032;-79
2021/05/01 07:00:12;;;;;;;9.43;3.47;;;;;;;26.46;38.77;94832.94;5036396;28;20056;-78
2021/05/01 07:02:41;;;;;;;12.18;3.83;;;;;;;26.44;38.95;94835.47;5037369;28;20029;-76
2021/05/01 07:05:10;;;;;;;10.60;3.75;;;;;;;26.55;38.51;94832.47;5025966;28;20037;-83
2021/05/01 07:07:36;;;;;;;10.30;4.07;;;;;;;26.67;37.98;94847.38;5039470;28;20081;-77
2021/05/01 07:10:05;;;;;;;8.25;3.47;;;;;;;26.69;38.21;94850.31;5035563;28;20048;-77
2021/05/01 07:12:31;;;;;;;10.15;3.40;;;;;;;26.87;37.99;94872.75;5037768;28;20029;-77
2021/05/01 07:14:58;;;;;;;8.18;3.30;;;;;;;26.95;38.27;94879.06;5025017;28;20519;-77
2021/05/01 07:17:23;;;;;;;8.40;3.38;;;;;;;26.83;38.33;94847.72;5036276;28;20029;-77
2021/05/01 07:19:49;;;;;;;7.65;3.22;;;;;;;26.65;37.94;94828.00;5036151;28;20041;-77
2021/05/01 07:22:14;;;;;;;7.28;3.22;;;;;;;26.98;38.14;94872.53;5035753;28;20021;-77
2021/05/01 07:24:40;;;;;;;7.72;3.30;;;;;;;26.64;38.31;94848.44;5036207;28;20405;-77
2021/05/01 07:27:06;;;;;;;7.78;3.72;;;;;;;26.71;37.95;94853.25;5025279;28;20527;-77
2021/05/01 07:29:37;;;;;;;6.18;3.15;;;;;;;26.76;38.20;94859.31;5036151;28;20040;-77
2021/05/01 07:32:03;;;;;;;6.97;3.13;;;;;;;26.83;38.26;94872.38;5036172;28;20060;-77
2021/05/01 07:34:28;;;;;;;8.40;3.15;;;;;;;26.76;38.01;94893.50;5037704;28;20055;-77
2021/05/01 07:36:55;;;;;;;7.65;3.42;;;;;;;26.32;38.16;94817.81;5021996;28;20029;-77
2021/05/01 07:39:21;;;;;;;9.27;3.20;;;;;;;26.53;38.38;94843.22;5036634;28;20037;-77
2021/05/01 07:41:55;;;;;;;12.38;3.60;;;;;;;26.75;38.18;94883.78;5037186;28;20036;-77
2021/05/01 07:44:21;;;;;;;7.05;3.45;;;;;;;26.71;38.56;94883.38;5037848;28;20033;-77
2021/05/01 07:46:47;;;;;;;7.43;3.13;;;;;;;26.67;38.57;94883.00;5029363;28;20060;-77
2021/05/01 07:49:12;;;;;;;7.07;3.33;;;;;;;26.41;38.52;94848.25;5036888;28;20474;-78
2021/05/01 07:51:39;;;;;;;7.75;3.00;;;;;;;26.64;38.37;94892.28;5037530;28;20586;-77
2021/05/01 07:54:05;;;;;;;6.90;3.25;;;;;;;26.60;38.23;94878.19;5037267;28;20048;-78
2021/05/01 07:56:31;;;;;;;4.72;3.10;;;;;;;26.53;38.74;94876.09;5039942;28;20112;-77
2021/05/01 07:58:57;;;;;;;6.38;2.80;;;;;;;26.53;38.68;94898.00;5036954;28;20477;-77
2021/05/01 08:01:26;;;;;;;5.00;2.67;;;;;;;26.49;38.77;94903.09;5038290;28;20049;-77
2021/05/01 08:03:51;;;;;;;7.38;3.30;;;;;;;26.19;38.30;94841.75;5036382;28;20441;-77
2021/05/01 08:06:17;;;;;;;5.53;2.75;;;;;;;26.44;38.89;94884.75;5027658;28;20021;-77
2021/05/01 08:08:43;;;;;;;6.05;2.85;;;;;;;26.10;38.88;94829.25;5034959;28;20122;-78
2021/05/01 08:11:08;;;;;;;6.75;3.70;;;;;;;26.39;39.10;94882.88;5036130;28;20022;-78
2021/05/01 08:13:34;;;;;;;6.75;3.20;;;;;;;26.38;39.00;94876.69;5036486;28;20032;-78
2021/05/01 08:15:59;;;;;;;6.03;2.80;;;;;;;26.39;38.95;94872.66;5035171;28;20029;-78
2021/05/01 08:18:25;;;;;;;7.03;3.05;;;;;;;26.39;39.05;94860.97;5037044;28;20025;-78
2021/05/01 08:20:50;;;;;;;6.18;2.97;;;;;;;26.28;39.15;94866.72;5037909;28;20047;-78
2021/05/01 08:23:16;;;;;;;5.70;2.78;;;;;;;26.26;39.36;94852.78;5036639;28;20729;-77
2021/05/01 08:25:41;;;;;;;5.50;2.78;;;;;;;26.35;38.84;94866.03;5037969;28;20485;-78
2021/05/01 08:28:07;;;;;;;5.50;2.80;;;;;;;26.33;38.97;94858.38;5037877;28;20067;-78
2021/05/01 08:30:32;;;;;;;6.93;2.70;;;;;;;26.31;39.23;94860.91;5036216;28;20024;-78
2021/05/01 08:32:58;;;;;;;6.22;3.08;;;;;;;26.10;39.19;94834.00;5036241;28;20430;-78
2021/05/01 08:35:23;;;;;;;6.95;2.72;;;;;;;26.29;39.03;94868.94;5037364;28;20059;-78
2021/05/01 08:37:49;;;;;;;5.28;2.70;;;;;;;26.32;39.47;94861.63;5035554;28;20028;-78
2021/05/01 08:40:14;;;;;;;5.00;2.83;;;;;;;25.96;38.78;94803.22;5037504;28;20025;-78
2021/05/01 08:42:44;;;;;;;5.45;2.45;;;;;;;26.33;39.30;94849.41;5037654;28;20026;-78
2021/05/01 08:45:10;;;;;;;7.93;2.90;;;;;;;26.34;38.79;94853.63;5036125;28;20112;-78
2021/05/01 08:47:39;;;;;;;5.82;2.90;;;;;;;26.34;38.73;94848.16;5037491;28;20125;-78
2021/05/01 08:50:05;;;;;;;7.40;3.17;;;;;;;26.31;39.47;94838.28;5037587;28;20511;-78
2021/05/01 08:52:31;;;;;;;5.45;2.92;;;;;;;26.15;39.18;94825.66;5036947;28;20473;-78
2021/05/01 08:54:59;;;;;;;5.63;3.05;;;;;;;26.32;39.00;94839.72;5035350;28;20018;-77
2021/05/01 08:57:26;;;;;;;7.00;2.83;;;;;;;26.33;38.75;94835.72;5037078;28;20081;-78
2021/05/01 08:59:52;;;;;;;6.32;2.88;;;;;;;26.33;39.43;94830.97;5037402;28;20025;-78
2021/05/01 09:02:18;;;;;;;4.95;2.70;;;;;;;26.35;38.75;94833.19;5052579;28;20027;-78
2021/05/01 09:04:47;;;;;;;5.82;3.20;;;;;;;26.34;39.38;94820.78;5019659;28;20082;-77
2021/05/01 09:07:14;;;;;;;4.00;2.47;;;;;;;25.85;39.44;94748.72;5037309;28;20025;-78
2021/05/01 09:09:40;;;;;;;5.30;2.78;;;;;;;26.31;38.95;94805.41;5034991;28;20123;-77
2021/05/01 09:12:06;;;;;;;4.70;2.50;;;;;;;26.27;39.21;94794.03;5036849;28;21461;-77
2021/05/01 09:14:31;;;;;;;5.60;2.97;;;;;;;26.29;39.27;94813.41;5038157;28;20623;-78
2021/05/01 09:17:01;;;;;;;4.07;2.33;;;;;;;26.24;38.85;94806.03;5053761;28;20424;-78
2021/05/01 09:19:40;;;;;;;5.28;2.67;;;;;;;26.27;39.25;94816.69;5037663;28;20429;-78
2021/05/01 09:22:13;;;;;;;6.43;2.63;;;;;;;26.27;38.94;94815.94;5035586;28;20064;-77
2021/05/01 09:24:39;;;;;;;4.43;2.67;;;;;;;25.98;39.00;94773.31;5035893;28;20280;-78
2021/05/01 09:27:05;;;;;;;5.47;2.72;;;;;;;26.25;39.64;94823.94;5035975;28;20052;-79
2021/05/01 09:29:35;;;;;;;5.43;2.78;;;;;;;26.25;39.58;94818.47;5041170;28;20108;-78
2021/05/01 09:32:04;;;;;;;4.50;2.50;;;;;;;26.23;39.39;94821.00;5041762;28;20045;-78
2021/05/01 09:34:37;;;;;;;4.38;2.40;;;;;;;26.20;39.65;94811.09;5023085;28;20052;-77
2021/05/01 09:37:03;;;;;;;4.72;2.50;;;;;;;26.22;39.18;94819.53;5038822;28;20053;-78
2021/05/01 09:39:29;;;;;;;6.13;2.95;;;;;;;26.23;39.25;94810.03;5035485;28;20029;-78
2021/05/01 09:41:55;;;;;;;4.45;2.20;;;;;;;26.21;39.12;94818.06;5037310;28;20021;-79
2021/05/01 09:44:20;;;;;;;4.30;2.47;;;;;;;26.19;39.25;94814.38;5036526;28;20025;-76
2021/05/01 09:46:50;;;;;;;4.55;3.03;;;;;;;26.22;39.63;94803.13;5035497;28;20132;-77
2021/05/01 09:49:25;;;;;;;5.25;2.30;;;;;;;26.14;39.48;94807.75;5036391;28;20039;-78
2021/05/01 09:51:55;;;;;;;4.43;2.60;;;;;;;26.19;39.28;94798.69;5019063;28;20428;-78
2021/05/01 09:54:20;;;;;;;4.47;2.28;;;;;;;26.20;39.06;94800.16;5044600;28;20037;-78
2021/05/01 09:56:47;;;;;;;3.67;2.22;;;;;;;26.16;39.61;94794.28;5045141;28;20205;-77
2021/05/01 09:59:13;;;;;;;5.03;2.42;;;;;;;26.20;39.10;94800.16;5045412;28;20028;-79
2021/05/01 10:01:39;;;;;;;5.00;2.40;;;;;;;26.20;39.26;94794.69;5045044;28;20118;-78
2021/05/01 10:04:14;;;;;;;4.13;2.45;;;;;;;26.19;39.48;94793.22;5028124;28;20022;-77
2021/05/01 10:06:41;;;;;;;5.47;2.75;;;;;;;26.07;39.43;94781.06;5046958;28;20752;-79
2021/05/01 10:09:07;;;;;;;4.13;2.10;;;;;;;26.07;39.44;94775.59;5042911;28;20043;-78
2021/05/01 10:11:33;;;;;;;4.20;2.40;;;;;;;25.97;39.80;94766.34;5027345;28;20056;-78
2021/05/01 10:13:58;;;;;;;5.65;2.40;;;;;;;26.18;39.36;94797.22;5035207;28;20117;-77
2021/05/01 10:16:24;;;;;;;5.60;2.22;;;;;;;26.20;39.77;94789.19;5043788;28;20037;-78
2021/05/01 10:19:06;;;;;;;4.50;2.42;;;;;;;26.20;39.73;94783.72;5045543;28;20034;-79
2021/05/01 10:21:32;;;;;;;4.13;1.90;;;;;;;26.11;39.48;94765.03;5042981;28;20040;-78
2021/05/01 10:23:58;;;;;;;4.82;2.20;;;;;;;26.20;39.69;94767.31;5026175;28;20041;-78
2021/05/01 10:26:23;;;;;;;4.28;2.30;;;;;;;26.14;39.25;94752.28;5040873;28;20032;-78
2021/05/01 10:28:51;;;;;;;4.75;2.40;;;;;;;26.20;39.85;94761.81;5042272;28;20515;-79
2021/05/01 10:31:23;;;;;;;3.85;2.05;;;;;;;26.20;39.07;94745.41;5042476;28;20049;-78
2021/05/01 10:33:49;;;;;;;4.45;2.67;;;;;;;26.20;39.62;94739.94;5042044;28;20032;-77
2021/05/01 10:36:25;;;;;;;4.50;2.47;;;;;;;26.22;39.75;94753.09;5054008;28;20085;-78
2021/05/01 10:39:01;;;;;;;3.22;1.75;;;;;;;26.22;39.11;94742.88;5064983;28;20033;-77
2021/05/01 10:41:29;;;;;;;5.57;2.50;;;;;;;25.83;39.35;94691.06;5065409;28;20030;-77
2021/05/01 10:43:56;;;;;;;3.47;2.00;;;;;;;26.22;39.61;94742.88;5066984;28;20033;-77
2021/05/01 10:46:27;;;;;;;4.30;2.05;;;;;;;26.17;39.48;94730.03;5067289;28;20024;-77
2021/05/01 10:48:55;;;;;;;4.15;2.15;;;;;;;26.23;39.34;94733.38;5060637;28;20032;-77
2021/05/01 10:51:25;;;;;;;4.80;2.22;;;;;;;26.17;39.70;94719.09;5045593;28;20109;-77
2021/05/01 10:54:08;;;;;;;;;;;;;;;26.23;39.31;94727.91;5038297;28;20029;-78
2021/05/01 10:56:33;;;;;;;4.88;2.17;;;;;;;26.22;39.02;94725.72;5036682;28;20391;-77
2021/05/01 10:59:06;;;;;;;4.78;2.20;;;;;;;26.22;39.45;94731.19;5045925;28;20029;-77
2021/05/01 11:01:33;;;;;;;4.28;2.05;;;;;;;26.22;39.58;94726.47;5047536;28;20029;-77
2021/05/01 11:04:01;;;;;;;3.70;2.22;;;;;;;26.17;39.51;94712.91;5041236;28;20029;-78
2021/05/01 11:06:27;;;;;;;3.53;2.13;;;;;;;26.16;39.62;94723.13;5039335;28;20033;-78
2021/05/01 11:09:03;;;;;;;3.83;2.15;;;;;;;26.25;39.64;94730.88;5037596;28;20048;-78
2021/05/01 11:11:40;;;;;;;3.72;2.30;;;;;;;26.24;39.61;94726.66;5039630;28;20984;-78
2021/05/01 11:14:21;;;;;;;3.50;2.10;;;;;;;26.25;39.28;94725.38;5039923;28;20037;-78
2021/05/01 11:17:02;;;;;;;3.30;2.22;;;;;;;25.97;39.26;94673.31;5039742;28;20037;-77
2021/05/01 11:19:28;;;;;;;3.90;1.95;;;;;;;26.23;39.57;94711.47;5038299;28;20051;-77
2021/05/01 11:21:53;;;;;;;4.30;2.25;;;;;;;26.23;39.48;94711.47;5021536;28;20416;-78
2021/05/01 11:24:19;;;;;;;5.43;2.17;;;;;;;26.23;39.18;94716.97;5037708;28;20485;-78
2021/05/01 11:26:46;;;;;;;3.42;2.17;;;;;;;26.19;39.64;94707.63;5039622;28;20408;-78
2021/05/01 11:29:12;;;;;;;4.43;2.35;;;;;;;26.25;39.71;94719.91;5039237;28;20036;-76
2021/05/01 11:31:40;;;;;;;3.63;2.10;;;;;;;26.23;39.73;94706.00;5039997;28;20071;-77